Archival Weather

Salzburg

Salzburg, Austria (LOWS)

Report from: Thursday, September 21, 2023 1:20 AM CEST
Current time: Saturday, February 24, 2024 4:35 PM CET

Current weather – Weather history – Daily summaries
Weather forecast

Temperature16.0°C (60.8°F)
Dew point13.0°C (55.4°F)
Winds 4 kts (2.1 m/s, 4.6 mph) Vrb
Winds variableWinds variable from Southeast (130°) to South-Southwest (210°)
Visibility6.2 mi. (10 km)
Altimeter29.83 in.Hg (1010 mB)
Relative humidity82 %
Density altitude437 ft. (133 m)
Remarks Fully automated report
Flight conditions Visual Meteorological Conditions
Raw dataLOWS 202320Z AUTO 16004KT 130V210 9999 NSC 16/13 Q1010
An error has occurred. This application may no longer respond until reloaded. Reload 🗙